createdAt,value
2018-11-21T00:02:19.492Z,5.79
2018-11-21T00:04:47.553Z,5.86
2018-11-21T00:07:15.481Z,5.86
2018-11-21T00:09:43.428Z,5.86
2018-11-21T00:12:11.691Z,5.78
2018-11-21T00:14:39.964Z,5.75
2018-11-21T00:17:07.902Z,5.67
2018-11-21T00:19:35.856Z,5.68
2018-11-21T00:22:03.810Z,5.66
2018-11-21T00:24:32.144Z,5.73
2018-11-21T00:27:00.359Z,5.81
2018-11-21T00:29:28.593Z,5.74
2018-11-21T00:31:56.869Z,5.64
2018-11-21T00:34:25.066Z,5.56
2018-11-21T00:36:53.370Z,5.62
2018-11-21T00:39:21.996Z,5.49
2018-11-21T00:41:49.991Z,5.61
2018-11-21T00:44:18.273Z,5.54
2018-11-21T00:46:46.605Z,5.42
2018-11-21T00:49:14.521Z,5.51
2018-11-21T00:51:42.765Z,5.49
2018-11-21T00:54:11.068Z,5.49
2018-11-21T00:56:38.986Z,5.44
2018-11-21T00:59:06.918Z,5.32
2018-11-21T01:01:35.202Z,5.30
2018-11-21T01:04:03.117Z,5.30
2018-11-21T01:06:31.390Z,5.28
2018-11-21T01:08:59.589Z,5.25
2018-11-21T01:11:27.549Z,5.25
2018-11-21T01:13:56.264Z,5.33
2018-11-21T01:16:24.460Z,5.49
2018-11-21T01:18:52.732Z,5.49
2018-11-21T01:21:20.955Z,5.43
2018-11-21T01:23:48.855Z,5.47
2018-11-21T01:26:17.123Z,5.48
2018-11-21T01:28:45.404Z,5.45
2018-11-21T01:31:13.633Z,5.37
2018-11-21T01:33:42.208Z,5.41
2018-11-21T01:36:10.112Z,5.44
2018-11-21T01:38:38.391Z,5.36
2018-11-21T01:41:06.311Z,5.33
2018-11-21T01:43:34.641Z,5.37
2018-11-21T01:46:02.584Z,5.29
2018-11-21T01:48:30.836Z,5.39
2018-11-21T01:50:58.795Z,5.27
2018-11-21T01:53:27.408Z,5.21
2018-11-21T01:55:55.326Z,5.10
2018-11-21T01:58:23.262Z,5.26
2018-11-21T02:00:51.524Z,5.23
2018-11-21T02:03:19.460Z,5.17
2018-11-21T02:05:47.399Z,5.16
2018-11-21T02:08:15.348Z,5.24
2018-11-21T02:10:43.290Z,5.26
2018-11-21T02:13:11.564Z,5.13
2018-11-21T02:15:39.502Z,5.12
2018-11-21T02:18:08.100Z,5.11
2018-11-21T02:20:36.108Z,5.04
2018-11-21T02:23:04.673Z,5.05
2018-11-21T02:25:33.024Z,5.01
2018-11-21T02:28:01.020Z,4.95
2018-11-21T02:30:28.994Z,4.94
2018-11-21T02:32:56.968Z,4.93
2018-11-21T02:35:24.941Z,4.91
2018-11-21T02:37:52.874Z,4.94
2018-11-21T02:40:20.844Z,4.96
2018-11-21T02:42:49.143Z,4.96
2018-11-21T02:45:17.081Z,4.99
2018-11-21T02:47:45.342Z,5.01
2018-11-21T02:50:13.549Z,4.99
2018-11-21T02:52:41.456Z,4.98
2018-11-21T02:55:09.666Z,4.94
2018-11-21T02:57:37.610Z,4.92
2018-11-21T03:00:13.964Z,4.92
2018-11-21T03:02:42.223Z,4.87
2018-11-21T03:05:10.420Z,4.83
2018-11-21T03:07:57.839Z,4.84
2018-11-21T03:10:26.657Z,4.83
2018-11-21T03:12:54.802Z,4.79
2018-11-21T03:15:23.045Z,4.94
2018-11-21T03:18:10.088Z,4.92
2018-11-21T03:20:38.624Z,4.94
2018-11-21T03:23:25.676Z,4.89
2018-11-21T03:25:53.588Z,4.93
2018-11-21T03:28:41.108Z,4.91
2018-11-21T03:31:08.988Z,4.79
2018-11-21T03:33:37.222Z,4.73
2018-11-21T03:36:24.301Z,4.78
2018-11-21T03:38:52.234Z,4.75
2018-11-21T03:41:20.135Z,4.91
2018-11-21T03:43:48.027Z,5.04
2018-11-21T03:46:35.430Z,5.07
2018-11-21T03:49:03.682Z,4.87
2018-11-21T03:51:51.034Z,4.89
2018-11-21T03:54:19.277Z,4.96
2018-11-21T03:57:06.363Z,4.96
2018-11-21T03:59:34.587Z,5.06
2018-11-21T04:02:21.651Z,5.02
2018-11-21T04:05:08.720Z,4.94
2018-11-21T04:07:36.844Z,5.01
2018-11-21T04:10:07.938Z,4.97
2018-11-21T04:12:35.899Z,5.01
2018-11-21T04:15:23.545Z,5.06
2018-11-21T04:17:51.799Z,5.07
2018-11-21T04:20:39.136Z,5.02
2018-11-21T04:23:26.189Z,4.97
2018-11-21T04:26:13.538Z,4.94
2018-11-21T04:28:41.740Z,5.01
2018-11-21T04:31:09.934Z,4.97
2018-11-21T04:33:57.002Z,4.98
2018-11-21T04:36:44.080Z,5.00
2018-11-21T04:39:12.673Z,4.93
2018-11-21T04:41:59.743Z,4.88
2018-11-21T04:44:27.664Z,4.88
2018-11-21T04:47:15.044Z,4.84
2018-11-21T04:49:42.973Z,4.83
2018-11-21T04:52:11.238Z,4.80
2018-11-21T04:54:58.618Z,4.80
2018-11-21T04:57:45.988Z,4.84
2018-11-21T05:00:33.103Z,4.73
2018-11-21T05:03:20.501Z,4.77
2018-11-21T05:05:48.722Z,4.75
2018-11-21T05:08:16.652Z,4.72
2018-11-21T05:10:44.587Z,4.64
2018-11-21T05:13:31.668Z,4.63
2018-11-21T05:16:00.226Z,4.65
2018-11-21T05:18:47.291Z,4.64
2018-11-21T05:21:34.739Z,4.62
2018-11-21T05:24:22.088Z,4.61
2018-11-21T05:26:50.311Z,4.59
2018-11-21T05:29:18.247Z,4.57
2018-11-21T05:32:05.317Z,4.53
2018-11-21T05:34:33.628Z,4.49
2018-11-21T05:37:21.003Z,4.42
2018-11-21T05:39:48.928Z,4.37
2018-11-21T05:42:36.316Z,4.33
2018-11-21T05:45:04.798Z,4.40
2018-11-21T05:47:51.912Z,4.40
2018-11-21T05:50:19.843Z,4.36
2018-11-21T05:53:06.977Z,4.43
2018-11-21T05:55:54.033Z,4.53
2018-11-21T05:58:21.960Z,4.36
2018-11-21T06:00:49.861Z,4.41
2018-11-21T06:03:17.783Z,4.44
2018-11-21T06:06:09.942Z,4.36
2018-11-21T06:08:32.763Z,4.33
2018-11-21T06:11:19.848Z,4.33
2018-11-21T06:13:47.744Z,4.32
2018-11-21T06:16:15.974Z,4.29
2018-11-21T06:19:03.375Z,4.28
2018-11-21T06:21:31.858Z,4.23
2018-11-21T06:24:18.922Z,4.17
2018-11-21T06:27:11.250Z,4.10
2018-11-21T06:29:58.606Z,4.03
2018-11-21T06:32:45.659Z,3.96
2018-11-21T06:35:14.047Z,3.97
2018-11-21T06:37:41.959Z,3.97
2018-11-21T06:40:12.351Z,3.97
2018-11-21T06:42:40.906Z,3.97
2018-11-21T06:45:09.606Z,3.95
2018-11-21T06:47:37.535Z,3.98
2018-11-21T06:50:06.119Z,3.99
2018-11-21T06:52:34.019Z,3.97
2018-11-21T06:55:01.930Z,3.95
2018-11-21T06:57:30.473Z,3.91
2018-11-21T06:59:58.728Z,3.89
2018-11-21T07:02:26.647Z,3.82
2018-11-21T07:05:14.018Z,3.87
2018-11-21T07:07:42.498Z,3.87
2018-11-21T07:10:29.895Z,3.84
2018-11-21T07:12:58.455Z,3.80
2018-11-21T07:15:26.362Z,3.83
2018-11-21T07:17:54.268Z,3.85
2018-11-21T07:20:22.617Z,3.84
2018-11-21T07:22:50.575Z,3.80
2018-11-21T07:25:20.300Z,3.83
2018-11-21T07:27:48.252Z,3.90
2018-11-21T07:30:16.874Z,3.91
2018-11-21T07:32:45.129Z,3.91
2018-11-21T07:35:17.816Z,3.88
2018-11-21T07:37:42.287Z,3.95
2018-11-21T07:40:11.971Z,4.01
2018-11-21T07:42:40.332Z,4.01
2018-11-21T07:45:09.820Z,4.02
2018-11-21T07:47:38.876Z,4.09
2018-11-21T07:50:09.579Z,4.10
2018-11-21T07:52:37.493Z,4.08
2018-11-21T07:55:05.938Z,4.12
2018-11-21T07:57:35.358Z,4.13
2018-11-21T08:01:01.317Z,4.18
2018-11-21T08:03:48.390Z,4.20
2018-11-21T08:06:19.010Z,4.19
2018-11-21T08:09:06.090Z,4.23
2018-11-21T08:11:53.506Z,4.34
2018-11-21T08:14:40.574Z,4.36
2018-11-21T08:17:27.678Z,4.60
2018-11-21T08:20:14.733Z,4.52
2018-11-21T08:22:54.471Z,4.54
2018-11-21T08:25:38.317Z,4.59
2018-11-21T08:28:25.373Z,4.50
2018-11-21T08:30:53.631Z,4.58
2018-11-21T08:33:21.535Z,5.12
2018-11-21T08:35:49.789Z,6.75
2018-11-21T08:38:17.776Z,7.76
2018-11-21T08:40:45.987Z,8.61
2018-11-21T08:43:14.193Z,9.15
2018-11-21T08:46:01.259Z,9.64
2018-11-21T08:48:29.162Z,9.66
2018-11-21T08:50:57.047Z,9.62
2018-11-21T08:53:44.124Z,10.23
2018-11-21T08:56:12.023Z,10.61
2018-11-21T08:58:40.308Z,9.72
2018-11-21T09:01:08.558Z,9.19
2018-11-21T09:03:36.528Z,8.65
2018-11-21T09:06:04.768Z,8.70
2018-11-21T09:08:32.695Z,8.87
2018-11-21T09:11:00.639Z,9.26
2018-11-21T09:13:28.572Z,9.36
2018-11-21T09:15:56.524Z,9.02
2018-11-21T09:18:24.525Z,8.77
2018-11-21T09:20:52.427Z,8.41
2018-11-21T09:23:20.369Z,8.12
2018-11-21T09:25:48.272Z,7.78
2018-11-21T09:28:16.529Z,7.49
2018-11-21T09:30:44.507Z,7.22
2018-11-21T09:33:12.420Z,7.07
2018-11-21T09:35:40.368Z,7.16
2018-11-21T09:38:08.325Z,7.07
2018-11-21T09:40:36.681Z,7.20
2018-11-21T09:43:04.924Z,7.32
2018-11-21T09:45:33.141Z,7.55
2018-11-21T09:48:01.110Z,7.30
2018-11-21T09:50:30.551Z,7.37
2018-11-21T09:52:58.831Z,7.63
2018-11-21T09:55:26.786Z,7.69
2018-11-21T09:57:55.079Z,7.72
2018-11-21T10:00:59.697Z,7.62
2018-11-21T10:03:29.174Z,7.64
2018-11-21T10:06:08.913Z,7.46
2018-11-21T10:08:50.713Z,7.36
2018-11-21T10:11:18.973Z,7.40
2018-11-21T10:13:46.891Z,7.57
2018-11-21T10:16:15.138Z,7.51
2018-11-21T10:18:44.715Z,7.51
2018-11-21T10:21:14.311Z,7.56
2018-11-21T10:23:42.289Z,7.41
2018-11-21T10:26:10.224Z,7.63
2018-11-21T10:28:38.528Z,7.62
2018-11-21T10:31:07.337Z,7.81
2018-11-21T10:33:35.289Z,7.82
2018-11-21T10:36:03.620Z,8.07
2018-11-21T10:38:31.538Z,8.08
2018-11-21T10:40:59.906Z,8.30
2018-11-21T10:43:28.453Z,8.30
2018-11-21T10:45:55.784Z,8.41
2018-11-21T10:48:23.726Z,8.33
2018-11-21T10:50:51.631Z,8.18
2018-11-21T10:53:19.646Z,8.13
2018-11-21T10:55:47.583Z,7.63
2018-11-21T10:58:15.497Z,7.64
2018-11-21T11:01:01.187Z,7.57
2018-11-21T11:03:34.456Z,7.83
2018-11-21T11:06:16.331Z,8.13
2018-11-21T11:09:02.002Z,8.18
2018-11-21T11:11:55.339Z,8.42
2018-11-21T11:14:51.238Z,8.66
2018-11-21T11:17:36.876Z,8.46
2018-11-21T11:20:19.828Z,8.55
2018-11-21T11:23:05.849Z,8.42
2018-11-21T11:25:48.658Z,7.96
2018-11-21T11:28:34.295Z,8.00
2018-11-21T11:31:19.807Z,8.08
2018-11-21T11:34:05.613Z,8.35
2018-11-21T11:37:01.920Z,8.45
2018-11-21T11:39:43.931Z,8.42
2018-11-21T11:42:43.024Z,8.30
2018-11-21T11:45:32.959Z,8.14
2018-11-21T11:48:19.616Z,8.08
2018-11-21T11:51:06.697Z,8.18
2018-11-21T11:53:52.487Z,8.43
2018-11-21T11:56:29.822Z,8.55
2018-11-21T11:59:15.311Z,8.50
2018-11-21T12:02:13.365Z,8.28
2018-11-21T12:05:16.797Z,8.20
2018-11-21T12:08:04.282Z,8.12
2018-11-21T12:10:57.498Z,8.18
2018-11-21T12:13:47.344Z,8.26
2018-11-21T12:16:33.128Z,8.11
2018-11-21T12:19:18.791Z,7.86
2018-11-21T12:22:05.893Z,7.76
2018-11-21T12:24:51.158Z,7.71
2018-11-21T12:27:42.492Z,7.71
2018-11-21T12:30:32.201Z,7.66
2018-11-21T12:33:17.795Z,7.78
2018-11-21T12:36:19.804Z,7.61
2018-11-21T12:39:09.469Z,7.59
2018-11-21T12:41:55.052Z,7.69
2018-11-21T12:44:40.900Z,7.61
2018-11-21T12:47:36.747Z,7.58
2018-11-21T12:50:23.807Z,7.60
2018-11-21T12:53:16.606Z,7.65
2018-11-21T12:56:09.514Z,7.56
2018-11-21T12:59:14.841Z,7.43
2018-11-21T13:02:07.687Z,7.55
2018-11-21T13:04:56.944Z,7.53
2018-11-21T13:07:42.882Z,7.52
2018-11-21T13:10:38.864Z,7.55
2018-11-21T13:13:27.121Z,7.47
2018-11-21T13:16:12.791Z,7.43
2018-11-21T13:19:17.894Z,7.33
2018-11-21T13:22:05.006Z,7.40
2018-11-21T13:24:51.490Z,7.32
2018-11-21T13:27:29.954Z,7.37
2018-11-21T13:30:28.912Z,7.42
2018-11-21T13:33:16.081Z,7.44
2018-11-21T13:35:51.549Z,7.48
2018-11-21T13:38:42.112Z,7.59
2018-11-21T13:41:17.291Z,7.72
2018-11-21T13:44:07.241Z,7.69
2018-11-21T13:46:53.019Z,7.63
2018-11-21T13:49:32.508Z,7.64
2018-11-21T13:52:19.624Z,7.71
2018-11-21T13:54:55.315Z,7.67
2018-11-21T13:57:23.291Z,7.65
2018-11-21T13:59:51.253Z,7.52
2018-11-21T14:02:19.129Z,7.55
2018-11-21T14:04:47.054Z,7.39
2018-11-21T14:07:15.288Z,6.99
2018-11-21T14:09:43.197Z,7.13
2018-11-21T14:12:11.146Z,7.31
2018-11-21T14:14:39.098Z,7.26
2018-11-21T14:17:07.141Z,7.47
2018-11-21T14:19:35.089Z,7.31
2018-11-21T14:22:03.004Z,7.45
2018-11-21T14:24:31.086Z,7.34
2018-11-21T14:26:59.235Z,7.33
2018-11-21T14:29:27.215Z,7.37
2018-11-21T14:31:55.455Z,7.37
2018-11-21T14:34:24.184Z,7.35
2018-11-21T14:36:52.456Z,7.42
2018-11-21T14:39:20.396Z,7.47
2018-11-21T14:41:48.882Z,7.47
2018-11-21T14:44:16.833Z,7.36
2018-11-21T14:46:47.020Z,7.38
2018-11-21T14:49:14.950Z,7.18
2018-11-21T14:51:43.165Z,7.17
2018-11-21T14:54:11.134Z,7.25
2018-11-21T14:56:39.036Z,7.16
2018-11-21T14:59:06.988Z,7.05
2018-11-21T15:01:34.988Z,7.20
2018-11-21T15:04:02.883Z,7.18
2018-11-21T15:06:30.794Z,6.98
2018-11-21T15:08:58.725Z,6.99
2018-11-21T15:11:31.301Z,7.00
2018-11-21T15:13:59.210Z,6.75
2018-11-21T15:16:27.109Z,6.87
2018-11-21T15:18:55.408Z,6.82
2018-11-21T15:21:23.320Z,6.96
2018-11-21T15:23:51.247Z,6.92
2018-11-21T15:26:19.185Z,6.90
2018-11-21T15:28:47.521Z,6.65
2018-11-21T15:31:15.422Z,6.78
2018-11-21T15:33:43.736Z,6.65
2018-11-21T15:36:11.661Z,6.50
2018-11-21T15:38:39.606Z,6.66
2018-11-21T15:41:07.598Z,6.69
2018-11-21T15:43:35.527Z,6.73
2018-11-21T15:46:03.507Z,6.71
2018-11-21T15:48:31.820Z,6.64
2018-11-21T15:50:59.803Z,6.70
2018-11-21T15:53:27.721Z,6.73
2018-11-21T15:55:55.985Z,6.76
2018-11-21T15:58:23.937Z,6.69
2018-11-21T16:00:52.103Z,6.59
2018-11-21T16:03:20.042Z,6.59
2018-11-21T16:05:47.957Z,6.70
2018-11-21T16:08:16.239Z,6.66
2018-11-21T16:10:45.550Z,6.57
2018-11-21T16:13:13.511Z,6.61
2018-11-21T16:15:46.335Z,6.51
2018-11-21T16:18:14.773Z,6.55
2018-11-21T16:20:42.984Z,6.41
2018-11-21T16:23:10.917Z,6.55
2018-11-21T16:25:38.830Z,6.47
2018-11-21T16:28:06.829Z,6.44
2018-11-21T16:30:34.755Z,6.42
2018-11-21T16:33:02.942Z,6.49
2018-11-21T16:35:30.879Z,6.54
2018-11-21T16:37:58.790Z,6.37
2018-11-21T16:40:28.425Z,6.33
2018-11-21T16:42:57.535Z,6.30
2018-11-21T16:45:27.396Z,6.28
2018-11-21T16:47:55.339Z,6.31
2018-11-21T16:50:23.322Z,6.29
2018-11-21T16:52:51.370Z,6.28
2018-11-21T16:55:21.012Z,6.21
2018-11-21T16:57:49.341Z,6.23
2018-11-21T17:00:19.101Z,6.25
2018-11-21T17:02:47.129Z,6.25
2018-11-21T17:05:16.554Z,6.23
2018-11-21T17:07:44.788Z,6.16
2018-11-21T17:10:14.739Z,6.15
2018-11-21T17:12:43.211Z,6.21
2018-11-21T17:15:13.347Z,6.07
2018-11-21T17:17:41.534Z,6.03
2018-11-21T17:20:12.539Z,6.12
2018-11-21T17:22:40.706Z,6.21
2018-11-21T17:25:11.448Z,6.27
2018-11-21T17:27:39.376Z,6.32
2018-11-21T17:30:09.553Z,6.21
2018-11-21T17:32:37.461Z,6.33
2018-11-21T17:35:06.345Z,6.33
2018-11-21T17:37:34.256Z,6.25
2018-11-21T17:40:02.208Z,6.17
2018-11-21T17:42:30.129Z,6.01
2018-11-21T17:44:58.094Z,5.83
2018-11-21T17:47:26.029Z,5.85
2018-11-21T17:49:54.029Z,5.82
2018-11-21T17:52:21.933Z,5.97
2018-11-21T17:54:49.854Z,5.88
2018-11-21T17:57:17.778Z,5.93
2018-11-21T17:59:46.035Z,5.98
2018-11-21T18:02:13.974Z,5.82
2018-11-21T18:04:41.942Z,5.82
2018-11-21T18:07:09.889Z,5.81
2018-11-21T18:09:37.827Z,5.73
2018-11-21T18:12:05.837Z,5.82
2018-11-21T18:14:34.047Z,5.80
2018-11-21T18:17:01.998Z,5.85
2018-11-21T18:19:29.939Z,5.94
2018-11-21T18:21:57.982Z,5.97
2018-11-21T18:24:25.928Z,5.87
2018-11-21T18:26:54.282Z,5.87
2018-11-21T18:29:22.217Z,5.78
2018-11-21T18:31:50.145Z,5.89
2018-11-21T18:34:18.702Z,5.90
2018-11-21T18:36:46.928Z,6.12
2018-11-21T18:39:14.905Z,6.15
2018-11-21T18:41:42.809Z,6.00
2018-11-21T18:44:10.939Z,6.17
2018-11-21T18:46:38.917Z,6.09
2018-11-21T18:49:06.889Z,6.14
2018-11-21T18:51:34.827Z,6.13
2018-11-21T18:54:02.760Z,6.26
2018-11-21T18:56:34.121Z,6.30
2018-11-21T18:59:06.493Z,6.36
2018-11-21T19:01:34.771Z,6.31
2018-11-21T19:04:02.753Z,6.28
2018-11-21T19:06:30.751Z,6.31
2018-11-21T19:08:58.652Z,6.30
2018-11-21T19:11:26.557Z,6.31
2018-11-21T19:13:54.513Z,6.28
2018-11-21T19:16:22.741Z,6.20
2018-11-21T19:18:50.755Z,6.20
2018-11-21T19:21:18.684Z,6.21
2018-11-21T19:23:46.936Z,6.20
2018-11-21T19:26:15.244Z,6.25
2018-11-21T19:28:43.148Z,6.25
2018-11-21T19:31:11.468Z,6.26
2018-11-21T19:33:39.424Z,6.33
2018-11-21T19:36:07.734Z,6.29
2018-11-21T19:38:35.664Z,6.19
2018-11-21T19:41:04.788Z,6.22
2018-11-21T19:43:32.706Z,6.22
2018-11-21T19:46:00.648Z,6.28
2018-11-21T19:48:28.674Z,6.26
2018-11-21T19:50:56.851Z,6.32
2018-11-21T19:53:25.238Z,6.35
2018-11-21T19:55:53.185Z,6.51
2018-11-21T19:58:21.098Z,6.58
2018-11-21T20:00:49.032Z,6.48
2018-11-21T20:03:16.989Z,6.52
2018-11-21T20:05:46.101Z,6.49
2018-11-21T20:08:14.008Z,6.44
2018-11-21T20:10:42.129Z,6.50
2018-11-21T20:13:10.152Z,6.54
2018-11-21T20:15:38.400Z,6.52
2018-11-21T20:18:06.374Z,6.44
2018-11-21T20:20:34.992Z,6.45
2018-11-21T20:23:06.527Z,6.46
2018-11-21T20:25:31.311Z,6.46
2018-11-21T20:27:59.222Z,6.54
2018-11-21T20:30:31.880Z,6.47
2018-11-21T20:32:59.855Z,6.57
2018-11-21T20:35:28.056Z,6.57
2018-11-21T20:37:56.026Z,6.50
2018-11-21T20:40:25.707Z,6.49
2018-11-21T20:42:53.992Z,6.58
2018-11-21T20:45:23.573Z,6.61
2018-11-21T20:47:52.911Z,6.71
2018-11-21T20:50:20.894Z,6.68
2018-11-21T20:52:49.224Z,6.79
2018-11-21T20:55:18.227Z,6.66
2018-11-21T20:57:46.259Z,6.62
2018-11-21T21:00:15.919Z,6.72
2018-11-21T21:02:43.830Z,6.76
2018-11-21T21:05:12.967Z,6.69
2018-11-21T21:07:41.631Z,6.78
2018-11-21T21:10:11.561Z,6.76
2018-11-21T21:12:39.916Z,6.76
2018-11-21T21:15:09.476Z,6.82
2018-11-21T21:17:37.552Z,6.75
2018-11-21T21:20:08.567Z,6.83
2018-11-21T21:22:36.883Z,6.81
2018-11-21T21:25:06.657Z,6.86
2018-11-21T21:27:34.943Z,6.95
2018-11-21T21:30:03.002Z,6.97
2018-11-21T21:32:30.939Z,7.05
2018-11-21T21:34:58.985Z,6.88
2018-11-21T21:37:27.220Z,6.88
2018-11-21T21:39:55.590Z,6.96
2018-11-21T21:42:23.545Z,6.90
2018-11-21T21:44:52.175Z,6.94
2018-11-21T21:47:20.077Z,6.97
2018-11-21T21:49:48.360Z,6.97
2018-11-21T21:52:16.287Z,6.95
2018-11-21T21:54:44.566Z,6.98
2018-11-21T21:57:12.525Z,6.90
2018-11-21T21:59:41.098Z,6.88
2018-11-21T22:02:10.149Z,6.92
2018-11-21T22:04:38.394Z,6.90
2018-11-21T22:07:07.965Z,6.91
2018-11-21T22:09:35.902Z,6.96
2018-11-21T22:12:03.996Z,6.96
2018-11-21T22:14:32.238Z,6.97
2018-11-21T22:17:00.152Z,6.99
2018-11-21T22:19:28.083Z,7.00
2018-11-21T22:21:56.315Z,6.99
2018-11-21T22:24:24.225Z,7.01
2018-11-21T22:26:52.191Z,7.01
2018-11-21T22:29:20.432Z,7.03
2018-11-21T22:31:48.370Z,7.04
2018-11-21T22:34:16.300Z,7.02
2018-11-21T22:36:44.966Z,7.05
2018-11-21T22:39:13.726Z,7.04
2018-11-21T22:41:41.940Z,7.07
2018-11-21T22:44:10.247Z,7.05
2018-11-21T22:46:38.156Z,7.07
2018-11-21T22:49:06.061Z,6.98
2018-11-21T22:51:34.084Z,7.01
2018-11-21T22:54:02.057Z,7.00
2018-11-21T22:56:30.000Z,7.03
2018-11-21T22:58:57.961Z,7.05
2018-11-21T23:01:30.493Z,7.06
2018-11-21T23:03:58.431Z,7.06
2018-11-21T23:06:26.368Z,7.07
2018-11-21T23:08:54.642Z,7.11
2018-11-21T23:11:22.579Z,7.12
2018-11-21T23:13:50.845Z,7.16
2018-11-21T23:16:19.103Z,7.13
2018-11-21T23:18:47.031Z,7.11
2018-11-21T23:21:15.332Z,7.14
2018-11-21T23:23:43.226Z,7.16
2018-11-21T23:26:11.175Z,7.14
2018-11-21T23:28:39.122Z,7.13
2018-11-21T23:31:07.320Z,7.14
2018-11-21T23:33:35.242Z,7.15
2018-11-21T23:36:03.535Z,7.17
2018-11-21T23:38:31.833Z,7.15
2018-11-21T23:40:59.805Z,7.16
2018-11-21T23:43:27.709Z,7.15
2018-11-21T23:45:55.652Z,7.16
2018-11-21T23:48:23.586Z,7.15
2018-11-21T23:50:51.506Z,7.15
2018-11-21T23:53:19.416Z,7.25
2018-11-21T23:55:47.633Z,7.15
2018-11-21T23:58:15.551Z,7.18
